Time;durP1;ratioP1;P1;durP2;ratioP2;P2;SDS_P1;SDS_P2;PMS_P1;PMS_P2;Temp;Humidity;BMP_temperature;BMP_pressure;BME280_temperature;BME280_humidity;BME280_pressure;Samples;Min_cycle;Max_cycle;Signal;HPM_P1;HPM_P2
2023/09/14 00:00:35;;;;;;;;;;;;;;;35.13;30.74;98071.00;5099364;28;19916;-84
2023/09/14 00:03:02;;;;;;;;;;;;;;;35.48;29.99;98059.22;5094355;28;19962;-84
2023/09/14 00:05:29;;;;;;;;;;;;;;;35.29;30.44;98068.22;5094698;28;19932;-84
2023/09/14 00:07:55;;;;;;;;;;;;;;;35.21;30.33;98072.09;5093430;28;19959;-84
2023/09/14 00:10:23;;;;;;;;;;;;;;;35.22;30.45;98065.06;5094502;28;19985;-84
2023/09/14 00:12:50;;;;;;;;;;;;;;;35.37;30.22;98062.81;5094843;28;20008;-84
2023/09/14 00:15:16;;;;;;;;;;;;;;;35.56;29.81;98063.97;5094831;28;19916;-84
2023/09/14 00:17:42;;;;;;;;;;;;;;;35.87;29.16;98063.03;5091429;28;20313;-84
2023/09/14 00:20:09;;;;;;;;;;;;;;;35.94;29.14;98054.72;5091374;28;19923;-84
2023/09/14 00:22:36;;;;;;;;;;;;;;;36.08;29.18;98053.72;5083075;28;19927;-84
2023/09/14 00:25:02;;;;;;;;;;;;;;;36.26;28.87;98058.19;5086967;28;19974;-82
2023/09/14 00:27:28;;;;;;;;;;;;;;;36.17;28.93;98058.44;5088325;28;19920;-82
2023/09/14 00:29:54;;;;;;;;;;;;;;;36.22;28.93;98062.59;5090349;28;20019;-84
2023/09/14 00:32:20;;;;;;;;;;;;;;;36.30;28.75;98061.56;5091400;28;20442;-84
2023/09/14 00:34:46;;;;;;;;;;;;;;;36.03;28.91;98056.59;5091870;28;19924;-84
2023/09/14 00:37:12;;;;;;;;;;;;;;;35.82;29.41;98060.94;5089725;28;19966;-84
2023/09/14 00:39:38;;;;;;;;;;;;;;;35.51;29.83;98064.72;5086111;28;19925;-84
2023/09/14 00:42:04;;;;;;;;;;;;;;;35.43;29.96;98069.31;5090856;28;19920;-84
2023/09/14 00:44:30;;;;;;;;;;;;;;;35.22;30.17;98074.41;5091282;28;20392;-84
2023/09/14 00:46:56;;;;;;;;;;;;;;;35.24;30.12;98068.22;5089614;28;19926;-84
2023/09/14 00:49:22;;;;;;;;;;;;;;;35.03;30.37;98072.50;5090257;28;20036;-84
2023/09/14 00:51:48;;;;;;;;;;;;;;;35.09;30.17;98068.38;5088187;28;20023;-85
2023/09/14 00:54:14;;;;;;;;;;;;;;;35.11;30.18;98068.66;5091517;28;20359;-84
2023/09/14 00:56:41;;;;;;;;;;;;;;;35.17;30.35;98071.56;5089850;28;20411;-84
2023/09/14 00:59:08;;;;;;;;;;;;;;;35.39;29.85;98063.09;5090426;28;19926;-84
2023/09/14 01:01:34;;;;;;;;;;;;;;;35.33;30.07;98065.16;5088680;28;20452;-84
2023/09/14 01:04:00;;;;;;;;;;;;;;;34.93;30.62;98068.25;5087508;28;20018;-84
2023/09/14 01:06:26;;;;;;;;;;;;;;;35.02;30.21;98079.50;5087522;28;19932;-84
2023/09/14 01:08:54;;;;;;;;;;;;;;;35.07;30.35;98078.75;5090552;28;20488;-84
2023/09/14 01:11:20;;;;;;;;;;;;;;;35.09;30.24;98085.53;5089983;28;19920;-84
2023/09/14 01:13:52;;;;;;;;;;;;;;;35.14;30.27;98086.84;5085202;28;20014;-84
2023/09/14 01:16:24;;;;;;;;;;;;;;;35.22;30.43;98079.34;5093225;28;20397;-84
2023/09/14 01:18:59;;;;;;;;;;;;;;;35.37;29.85;98071.38;5093051;28;19927;-84
2023/09/14 01:22:01;;;;;;;;;;;;;;;35.23;30.04;98072.34;5093598;28;19927;-84
2023/09/14 01:24:54;;;;;;;;;;;;;;;35.21;30.04;98060.66;5048753;28;19924;-84
2023/09/14 01:27:22;;;;;;;;;;;;;;;35.23;30.10;98066.66;5074571;28;19919;-84
2023/09/14 01:29:48;;;;;;;;;;;;;;;35.23;30.27;98063.78;5111571;28;19940;-84
2023/09/14 01:32:14;;;;;;;;;;;;;;;35.31;30.02;98064.88;5097555;28;19928;-84
2023/09/14 01:34:40;;;;;;;;;;;;;;;35.60;29.78;98069.44;5092452;28;19931;-84
2023/09/14 01:37:06;;;;;;;;;;;;;;;35.73;29.66;98069.75;5093383;28;19916;-84
2023/09/14 01:39:33;;;;;;;;;;;;;;;35.80;29.41;98069.25;5093504;28;19924;-84
2023/09/14 01:42:00;;;;;;;;;;;;;;;35.93;29.36;98075.25;5093261;28;20017;-84
2023/09/14 01:44:29;;;;;;;;;;;;;;;35.84;29.59;98076.28;5092985;28;20300;-84
2023/09/14 01:46:56;;;;;;;;;;;;;;;36.01;29.33;98074.25;5092430;28;19927;-84
2023/09/14 01:49:22;;;;;;;;;;;;;;;36.17;29.22;98075.59;5089956;28;20297;-84
2023/09/14 01:51:48;;;;;;;;;;;;;;;36.29;28.98;98082.09;5081413;28;19928;-84
2023/09/14 01:54:14;;;;;;;;;;;;;;;36.30;29.10;98083.66;5097145;28;19928;-84
2023/09/14 01:56:41;;;;;;;;;;;;;;;36.15;29.52;98094.56;5090362;28;19929;-84
2023/09/14 01:59:07;;;;;;;;;;;;;;;36.13;29.56;98085.72;5090130;28;19959;-84
2023/09/14 02:01:33;;;;;;;;;;;;;;;36.19;29.06;98089.38;5093057;28;20022;-84
2023/09/14 02:03:59;;;;;;;;;;;;;;;36.08;29.83;98083.63;5092381;28;19994;-84
2023/09/14 02:06:25;;;;;;;;;;;;;;;36.03;29.94;98088.84;5092713;28;20039;-84
2023/09/14 02:08:51;;;;;;;;;;;;;;;36.07;29.90;98082.84;5095722;28;20010;-84
2023/09/14 02:11:17;;;;;;;;;;;;;;;35.95;30.27;98099.16;5111703;28;19959;-84
2023/09/14 02:13:43;;;;;;;;;;;;;;;35.96;30.14;98086.44;5096438;28;20398;-84
2023/09/14 02:16:09;;;;;;;;;;;;;;;35.99;30.19;98088.28;5096120;28;19965;-84
2023/09/14 02:18:35;;;;;;;;;;;;;;;35.83;30.50;98089.00;5096515;28;19920;-84
2023/09/14 02:21:01;;;;;;;;;;;;;;;35.74;30.64;98088.44;5098963;28;19924;-84
2023/09/14 02:23:27;;;;;;;;;;;;;;;35.83;30.68;98089.00;5095223;28;19928;-83
2023/09/14 02:25:53;;;;;;;;;;;;;;;36.00;30.68;98084.13;5082546;28;20408;-82
2023/09/14 02:28:20;;;;;;;;;;;;;;;35.90;30.63;98082.00;5086689;28;19952;-84
2023/09/14 02:30:46;;;;;;;;;;;;;;;35.82;30.60;98087.44;5091573;28;19927;-84
2023/09/14 02:33:12;;;;;;;;;;;;;;;35.80;30.95;98090.00;5095700;28;19920;-84
2023/09/14 02:35:39;;;;;;;;;;;;;;;35.77;31.23;98073.91;5095598;28;19924;-83
2023/09/14 02:38:05;;;;;;;;;;;;;;;35.89;30.97;98083.31;5092124;28;20033;-83
2023/09/14 02:40:32;;;;;;;;;;;;;;;36.00;30.57;98078.44;5105015;28;19916;-84
2023/09/14 02:42:58;;;;;;;;;;;;;;;36.10;30.63;98084.69;5103788;28;20308;-84
2023/09/14 02:45:24;;;;;;;;;;;;;;;36.19;30.36;98081.56;5095878;28;20023;-83
2023/09/14 02:47:51;;;;;;;;;;;;;;;36.23;30.33;98084.16;5096433;28;19921;-84
2023/09/14 02:50:17;;;;;;;;;;;;;;;36.32;29.86;98087.56;5094989;28;19920;-83
2023/09/14 02:52:43;;;;;;;;;;;;;;;36.39;29.86;98091.97;5086162;28;20335;-83
2023/09/14 02:55:09;;;;;;;;;;;;;;;36.27;29.96;98088.31;5076019;28;19917;-83
2023/09/14 02:57:35;;;;;;;;;;;;;;;36.25;30.09;98095.88;5091494;28;19924;-83
2023/09/14 03:00:01;;;;;;;;;;;;;;;36.18;29.70;98102.88;5095801;28;19951;-83
2023/09/14 03:02:27;;;;;;;;;;;;;;;36.26;29.71;98103.94;5094465;28;20011;-83
2023/09/14 03:04:53;;;;;;;;;;;;;;;36.36;30.22;98110.19;5095561;28;20342;-84
2023/09/14 03:07:19;;;;;;;;;;;;;;;36.41;29.87;98109.44;5097015;28;19924;-84
2023/09/14 03:09:45;;;;;;;;;;;;;;;36.45;29.93;98116.47;5096020;28;19923;-84
2023/09/14 03:12:11;;;;;;;;;;;;;;;36.44;29.95;98112.00;5092649;28;19921;-84
2023/09/14 03:14:37;;;;;;;;;;;;;;;36.43;30.02;98116.16;5083964;28;19923;-84
2023/09/14 03:17:03;;;;;;;;;;;;;;;36.41;29.78;98112.28;5105198;28;19926;-84
2023/09/14 03:19:29;;;;;;;;;;;;;;;36.14;30.14;98119.50;5100105;28;19916;-84
2023/09/14 03:21:55;;;;;;;;;;;;;;;35.92;30.52;98117.34;5095700;28;20427;-84
2023/09/14 03:24:21;;;;;;;;;;;;;;;35.80;30.80;98117.84;5095529;28;19923;-84
2023/09/14 03:26:47;;;;;;;;;;;;;;;35.47;31.32;98127.00;5095505;28;20002;-84
2023/09/14 03:29:13;;;;;;;;;;;;;;;35.40;31.48;98124.63;5095074;28;20356;-84
2023/09/14 03:31:39;;;;;;;;;;;;;;;35.21;31.70;98129.19;5092772;28;19916;-84
2023/09/14 03:34:07;;;;;;;;;;;;;;;35.28;31.73;98125.84;5087905;28;19916;-84
2023/09/14 03:36:33;;;;;;;;;;;;;;;35.28;31.67;98131.56;5095083;28;19970;-84
2023/09/14 03:38:59;;;;;;;;;;;;;;;35.21;31.71;98135.69;5093182;28;19927;-84
2023/09/14 03:41:25;;;;;;;;;;;;;;;34.72;32.41;98133.22;5094092;28;19916;-84
2023/09/14 03:43:51;;;;;;;;;;;;;;;34.02;33.72;98133.53;5089460;28;19920;-84
2023/09/14 03:46:17;;;;;;;;;;;;;;;34.41;33.07;98138.84;5091277;28;19932;-84
2023/09/14 03:48:43;;;;;;;;;;;;;;;34.65;32.64;98139.38;5079226;28;20341;-84
2023/09/14 03:51:09;;;;;;;;;;;;;;;34.56;32.93;98143.19;5093666;28;20011;-84
2023/09/14 03:53:35;;;;;;;;;;;;;;;34.67;32.79;98137.59;5094999;28;19954;-84
2023/09/14 03:56:03;;;;;;;;;;;;;;;34.40;33.14;98145.88;5093949;28;19974;-83
2023/09/14 03:58:29;;;;;;;;;;;;;;;34.06;33.58;98142.66;5096758;28;20496;-84
2023/09/14 04:00:55;;;;;;;;;;;;;;;34.55;32.77;98155.88;5092177;28;19954;-82
2023/09/14 04:03:22;;;;;;;;;;;;;;;34.36;33.01;98157.47;5083039;28;19928;-81
2023/09/14 04:05:48;;;;;;;;;;;;;;;34.40;32.86;98155.19;5080608;28;20274;-82
2023/09/14 04:08:14;;;;;;;;;;;;;;;34.43;32.91;98159.09;5084983;28;20313;-82
2023/09/14 04:10:40;;;;;;;;;;;;;;;34.35;32.97;98161.63;5082224;28;19998;-81
2023/09/14 04:13:29;;;;;;;;;;;;;;;33.99;33.41;98163.00;5087439;28;19974;-82
2023/09/14 04:15:55;;;;;;;;;;;;;;;34.12;33.71;98164.75;5088492;28;19920;-82
2023/09/14 04:18:22;;;;;;;;;;;;;;;34.26;33.11;98161.75;5086400;28;19932;-84
2023/09/14 04:20:49;;;;;;;;;;;;;;;34.19;33.13;98159.38;5083879;28;19959;-84
2023/09/14 04:23:15;;;;;;;;;;;;;;;34.17;33.22;98167.63;5088302;28;19920;-84
2023/09/14 04:25:44;;;;;;;;;;;;;;;34.32;33.00;98171.19;5091429;28;19965;-82
2023/09/14 04:28:12;;;;;;;;;;;;;;;34.52;32.48;98167.47;5100027;28;19920;-84
2023/09/14 04:30:45;;;;;;;;;;;;;;;34.20;32.49;98171.56;5093040;28;20312;-83
2023/09/14 04:33:12;;;;;;;;;;;;;;;34.18;32.75;98160.66;5091809;28;19928;-84
2023/09/14 04:35:38;;;;;;;;;;;;;;;34.21;32.68;98162.50;5092180;28;19924;-85
2023/09/14 04:38:06;;;;;;;;;;;;;;;34.02;32.83;98158.38;5094771;28;19985;-84
2023/09/14 04:40:34;;;;;;;;;;;;;;;33.73;33.37;98165.00;5089968;28;20379;-85
2023/09/14 04:43:00;;;;;;;;;;;;;;;33.97;32.85;98170.50;5090985;28;19920;-86
2023/09/14 04:45:26;;;;;;;;;;;;;;;34.13;32.59;98161.38;5085446;28;19953;-84
2023/09/14 04:47:52;;;;;;;;;;;;;;;34.33;32.52;98166.25;5077925;28;19920;-85
2023/09/14 04:50:18;;;;;;;;;;;;;;;34.36;32.07;98171.72;5083153;28;20318;-85
2023/09/14 04:52:44;;;;;;;;;;;;;;;34.11;32.80;98168.88;5087392;28;19924;-87
2023/09/14 04:55:10;;;;;;;;;;;;;;;33.94;32.84;98175.13;5086046;28;19969;-89
2023/09/14 04:57:36;;;;;;;;;;;;;;;34.40;32.22;98175.13;5081460;28;20028;-87
2023/09/14 05:00:04;;;;;;;;;;;;;;;34.70;31.74;98167.94;5075051;28;19927;-87
2023/09/14 05:02:31;;;;;;;;;;;;;;;34.70;31.67;98173.63;5088613;28;20409;-87
2023/09/14 05:04:57;;;;;;;;;;;;;;;34.86;31.56;98165.75;5093860;28;20347;-87
2023/09/14 05:07:23;;;;;;;;;;;;;;;35.02;31.11;98173.69;5093771;28;19943;-87
2023/09/14 05:09:49;;;;;;;;;;;;;;;34.99;31.09;98177.50;5093929;28;19966;-87
2023/09/14 05:12:15;;;;;;;;;;;;;;;34.81;31.41;98172.97;5093510;28;20300;-87
2023/09/14 05:14:41;;;;;;;;;;;;;;;34.68;31.48;98181.16;5093448;28;19946;-87
2023/09/14 05:17:07;;;;;;;;;;;;;;;34.61;31.94;98181.63;5093956;28;20292;-87
2023/09/14 05:19:33;;;;;;;;;;;;;;;34.73;31.68;98184.06;5087865;28;20003;-87
2023/09/14 05:21:59;;;;;;;;;;;;;;;34.73;31.75;98183.25;5093501;28;19927;-87
2023/09/14 05:24:25;;;;;;;;;;;;;;;34.80;31.50;98188.50;5093285;28;20401;-87
2023/09/14 05:26:52;;;;;;;;;;;;;;;34.70;31.87;98187.16;5093696;28;19923;-87
2023/09/14 05:29:18;;;;;;;;;;;;;;;34.38;32.03;98189.13;5092154;28;20309;-87
2023/09/14 05:31:44;;;;;;;;;;;;;;;34.45;32.25;98182.97;5097458;28;19920;-87
2023/09/14 05:34:10;;;;;;;;;;;;;;;34.57;32.01;98189.59;5093812;28;19920;-87
2023/09/14 05:36:36;;;;;;;;;;;;;;;34.38;32.53;98191.97;5093202;28;20276;-87
2023/09/14 05:39:02;;;;;;;;;;;;;;;34.27;32.77;98193.91;5079844;28;19960;-87
2023/09/14 05:41:28;;;;;;;;;;;;;;;34.35;32.48;98192.19;5079973;28;19920;-87
2023/09/14 05:43:54;;;;;;;;;;;;;;;34.37;32.66;98196.13;5088746;28;19924;-87
2023/09/14 05:46:20;;;;;;;;;;;;;;;34.18;32.78;98197.72;5087443;28;19927;-87
2023/09/14 05:48:46;;;;;;;;;;;;;;;33.94;33.32;98197.13;5089367;28;20389;-87
2023/09/14 05:51:12;;;;;;;;;;;;;;;34.13;33.01;98201.28;5091678;28;19928;-87
2023/09/14 05:53:38;;;;;;;;;;;;;;;34.04;33.23;98196.53;5091584;28;20334;-87
2023/09/14 05:56:04;;;;;;;;;;;;;;;33.95;33.30;98204.41;5090033;28;20016;-87
2023/09/14 05:58:30;;;;;;;;;;;;;;;33.77;33.92;98196.91;5095532;28;19916;-86
2023/09/14 06:00:56;;;;;;;;;;;;;;;33.03;35.06;98211.81;5093817;28;20026;-86
2023/09/14 06:03:22;;;;;;;;;;;;;;;33.29;34.52;98202.16;5096710;28;20031;-84
2023/09/14 06:05:49;;;;;;;;;;;;;;;33.00;34.83;98199.34;5093651;28;19924;-84
2023/09/14 06:08:15;;;;;;;;;;;;;;;33.52;34.26;98206.13;5086384;28;19943;-84
2023/09/14 06:10:41;;;;;;;;;;;;;;;33.91;33.73;98201.00;5086518;28;19920;-84
2023/09/14 06:13:07;;;;;;;;;;;;;;;34.17;33.21;98209.63;5091024;28;20434;-84
2023/09/14 06:15:33;;;;;;;;;;;;;;;34.43;32.94;98204.72;5096690;28;20265;-85
2023/09/14 06:17:59;;;;;;;;;;;;;;;33.86;34.88;98207.41;5086579;28;20365;-85
2023/09/14 06:20:25;;;;;;;;;;;;;;;33.90;33.87;98208.75;5092987;28;19916;-85
2023/09/14 06:22:51;;;;;;;;;;;;;;;34.13;33.21;98212.69;5091215;28;19916;-87
2023/09/14 06:25:17;;;;;;;;;;;;;;;34.24;33.23;98209.94;5084934;28;20373;-85
2023/09/14 06:27:44;;;;;;;;;;;;;;;34.30;32.98;98215.72;5094592;28;19923;-85
2023/09/14 06:30:10;;;;;;;;;;;;;;;34.49;32.91;98219.84;5095637;28;19958;-85
2023/09/14 06:32:36;;;;;;;;;;;;;;;34.68;32.37;98219.00;5091204;28;19916;-88
2023/09/14 06:35:02;;;;;;;;;;;;;;;34.78;32.32;98215.97;5095492;28;19977;-88
2023/09/14 06:37:28;;;;;;;;;;;;;;;33.91;33.21;98221.69;5089194;28;19920;-87
2023/09/14 06:39:54;;;;;;;;;;;;;;;33.81;33.89;98222.34;5085633;28;20377;-87
2023/09/14 06:42:20;;;;;;;;;;;;;;;33.85;33.94;98222.91;5084325;28;19920;-88
2023/09/14 06:44:46;;;;;;;;;;;;;;;33.99;33.23;98222.84;5087856;28;20478;-89
2023/09/14 06:47:13;;;;;;;;;;;;;;;33.90;33.80;98225.84;5094007;28;19938;-88
2023/09/14 06:49:39;;;;;;;;;;;;;;;33.58;34.09;98231.88;5092115;28;19920;-87
2023/09/14 06:52:05;;;;;;;;;;;;;;;33.65;34.31;98229.41;5085760;28;20297;-83
2023/09/14 06:54:31;;;;;;;;;;;;;;;33.47;34.68;98231.69;5083386;28;19920;-84
2023/09/14 06:56:57;;;;;;;;;;;;;;;33.77;34.26;98236.78;5084666;28;19924;-84
2023/09/14 06:59:24;;;;;;;;;;;;;;;34.21;33.68;98233.78;5082206;28;20450;-83
2023/09/14 07:01:50;;;;;;;;;;;;;;;34.80;32.52;98239.88;5086909;28;19928;-86
2023/09/14 07:04:16;;;;;;;;;;;;;;;34.87;32.64;98244.38;5085872;28;19920;-86
2023/09/14 07:06:42;;;;;;;;;;;;;;;34.49;32.71;98251.19;5092701;28;19931;-86
2023/09/14 07:09:08;;;;;;;;;;;;;;;33.69;33.94;98246.25;5093469;28;19934;-86
2023/09/14 07:11:34;;;;;;;;;;;;;;;33.41;34.38;98255.16;5087259;28;19924;-86
2023/09/14 07:14:00;;;;;;;;;;;;;;;33.55;34.41;98261.31;5087354;28;20396;-85
2023/09/14 07:16:26;;;;;;;;;;;;;;;33.33;34.60;98268.22;5086822;28;20783;-86
2023/09/14 07:18:52;;;;;;;;;;;;;;;33.07;35.03;98263.66;5088867;28;19920;-86
2023/09/14 07:21:18;;;;;;;;;;;;;;;33.27;34.55;98270.19;5091016;28;19920;-85
2023/09/14 07:23:46;;;;;;;;;;;;;;;33.73;34.10;98272.47;5091774;28;20556;-85
2023/09/14 07:26:12;;;;;;;;;;;;;;;33.81;33.45;98279.31;5087062;28;19973;-86
2023/09/14 07:28:38;;;;;;;;;;;;;;;30.89;40.46;98278.41;5092508;28;19919;-87
2023/09/14 07:31:05;;;;;;;;;;;;;;;31.78;37.15;98282.19;5085554;28;19920;-86
2023/09/14 07:33:32;;;;;;;;;;;;;;;31.65;37.26;98283.69;5083907;28;20360;-86
2023/09/14 07:35:58;;;;;;;;;;;;;;;29.71;41.18;98289.63;5090438;28;20392;-89
2023/09/14 07:38:24;;;;;;;;;;;;;;;27.97;47.03;98288.91;5088128;28;20648;-85
2023/09/14 07:40:50;;;;;;;;;;;;;;;27.72;49.05;98295.41;5090679;28;19928;-87
2023/09/14 07:43:16;;;;;;;;;;;;;;;27.08;54.66;98293.00;5082118;28;19939;-85
2023/09/14 07:45:43;;;;;;;;;;;;;;;28.77;45.63;98292.94;5087922;28;19960;-85
2023/09/14 07:48:09;;;;;;;;;;;;;;;28.47;47.01;98296.47;5088868;28;19924;-86
2023/09/14 07:50:38;;;;;;;;;;;;;;;28.16;49.10;98298.38;5092806;28;20379;-86
2023/09/14 07:53:04;;;;;;;;;;;;;;;28.08;48.90;98304.28;5082434;28;20270;-86
2023/09/14 07:55:30;;;;;;;;;;;;;;;29.59;43.62;98313.19;5086599;28;19916;-85
2023/09/14 07:57:56;;;;;;;;;;;;;;;28.36;47.90;98307.31;5088167;28;20360;-85
2023/09/14 08:00:22;;;;;;;;;;;;;;;27.91;48.74;98316.16;5084829;28;19924;-85
2023/09/14 08:02:48;;;;;;;;;;;;;;;28.14;47.73;98315.78;5082423;28;21365;-85
2023/09/14 08:05:14;;;;;;;;;;;;;;;28.47;45.27;98310.59;5083829;28;20385;-87
2023/09/14 08:07:40;;;;;;;;;;;;;;;29.75;41.37;98321.41;5084427;28;19920;-86
2023/09/14 08:10:07;;;;;;;;;;;;;;;31.07;38.18;98315.22;5088523;28;20004;-86
2023/09/14 08:12:36;;;;;;;;;;;;;;;30.43;39.25;98323.78;5090473;28;20029;-86
2023/09/14 08:15:03;;;;;;;;;;;;;;;31.74;37.17;98324.16;5093127;28;20317;-86
2023/09/14 08:17:29;;;;;;;;;;;;;;;32.42;35.68;98313.81;5091024;28;19935;-86
2023/09/14 08:19:55;;;;;;;;;;;;;;;31.95;36.70;98328.00;5093203;28;19927;-87
2023/09/14 08:22:23;;;;;;;;;;;;;;;32.05;36.44;98329.53;5086458;28;19954;-89
2023/09/14 08:24:49;;;;;;;;;;;;;;;31.76;37.12;98330.16;5086512;28;19955;-88
2023/09/14 08:27:15;;;;;;;;;;;;;;;31.53;39.06;98328.03;5094202;28;19966;-88
2023/09/14 08:29:42;;;;;;;;;;;;;;;32.11;36.01;98329.69;5093008;28;19916;-86
2023/09/14 08:32:08;;;;;;;;;;;;;;;32.79;34.67;98325.69;5094364;28;19947;-87
2023/09/14 08:34:34;;;;;;;;;;;;;;;32.92;34.69;98329.03;5093502;28;19962;-87
2023/09/14 08:37:01;;;;;;;;;;;;;;;32.47;37.34;98338.72;5093942;28;19963;-86
2023/09/14 08:39:28;;;;;;;;;;;;;;;33.05;34.42;98332.41;5094036;28;19927;-87
2023/09/14 08:41:54;;;;;;;;;;;;;;;33.21;33.98;98336.84;5094625;28;20331;-86
2023/09/14 08:44:21;;;;;;;;;;;;;;;32.75;34.43;98336.47;5094380;28;19916;-87
2023/09/14 08:46:48;;;;;;;;;;;;;;;32.80;34.29;98343.53;5093941;28;20289;-87
2023/09/14 08:49:15;;;;;;;;;;;;;;;32.47;35.39;98338.72;5074059;28;20380;-86
2023/09/14 08:51:42;;;;;;;;;;;;;;;32.72;34.03;98334.63;5074143;28;19958;-87
2023/09/14 08:54:08;;;;;;;;;;;;;;;32.13;35.05;98349.88;5073812;28;19917;-87
2023/09/14 08:56:35;;;;;;;;;;;;;;;33.03;33.90;98337.81;5092656;28;19915;-87
2023/09/14 08:59:02;;;;;;;;;;;;;;;32.21;36.94;98360.38;5094270;28;20365;-87
2023/09/14 09:01:30;;;;;;;;;;;;;;;30.46;39.04;98350.38;5094114;28;19915;-86
2023/09/14 09:03:56;;;;;;;;;;;;;;;31.87;35.56;98355.19;5093996;28;20373;-84
2023/09/14 09:06:23;;;;;;;;;;;;;;;32.96;33.35;98345.91;5094312;28;20392;-84
2023/09/14 09:08:49;;;;;;;;;;;;;;;32.91;33.23;98352.31;5093741;28;20274;-84
2023/09/14 09:11:15;;;;;;;;;;;;;;;32.37;34.47;98364.88;5094167;28;19920;-83
2023/09/14 09:13:43;;;;;;;;;;;;;;;31.31;36.34;98359.47;5093660;28;20270;-83
2023/09/14 09:16:10;;;;;;;;;;;;;;;33.37;33.33;98359.88;5093551;28;19916;-84
2023/09/14 09:18:56;;;;;;;;;;;;;;;34.12;31.60;98358.56;5093855;28;20010;-86
2023/09/14 09:21:26;;;;;;;;;;;;;;;33.12;33.05;98369.00;5093463;28;19916;-86
2023/09/14 09:23:52;;;;;;;;;;;;;;;33.27;32.29;98360.50;5093777;28;19923;-86
2023/09/14 09:26:19;;;;;;;;;;;;;;;33.75;31.76;98361.84;5093510;28;19916;-86
2023/09/14 09:28:47;;;;;;;;;;;;;;;33.76;32.45;98363.44;5093910;28;19958;-85
2023/09/14 09:31:13;;;;;;;;;;;;;;;34.56;31.89;98362.81;5093570;28;20364;-84
2023/09/14 09:33:40;;;;;;;;;;;;;;;34.33;32.44;98360.91;5092815;28;19927;-86
2023/09/14 09:36:15;;;;;;;;;;;;;;;33.55;31.73;98358.94;5093647;28;19932;-86
2023/09/14 09:38:45;;;;;;;;;;;;;;;34.05;32.07;98366.22;5092809;28;20223;-84
2023/09/14 09:41:11;;;;;;;;;;;;;;;32.93;32.52;98372.50;5093589;28;19955;-84
2023/09/14 09:43:38;;;;;;;;;;;;;;;33.39;31.47;98374.44;5093671;28;19916;-84
2023/09/14 09:46:12;;;;;;;;;;;;;;;34.19;31.15;98376.03;5090042;28;19920;-84
2023/09/14 09:48:39;;;;;;;;;;;;;;;34.10;30.72;98381.06;5090608;28;20330;-84
2023/09/14 09:51:05;;;;;;;;;;;;;;;34.30;30.64;98381.88;5093861;28;19943;-84
2023/09/14 09:53:31;;;;;;;;;;;;;;;32.18;33.74;98383.31;5092237;28;20439;-83
2023/09/14 09:55:57;;;;;;;;;;;;;;;33.35;31.60;98378.75;5093446;28;19923;-84
2023/09/14 09:58:33;;;;;;;;;;;;;;;33.58;30.75;98377.09;5093585;28;19970;-84
2023/09/14 10:00:59;;;;;;;;;;;;;;;33.40;31.21;98378.03;5093494;28;19916;-84
2023/09/14 10:03:25;;;;;;;;;;;;;;;34.12;30.28;98373.59;5093429;28;19926;-84
2023/09/14 10:05:51;;;;;;;;;;;;;;;33.87;30.21;98380.69;5093568;28;19927;-84
2023/09/14 10:08:18;;;;;;;;;;;;;;;34.18;30.32;98374.44;5093355;28;19920;-84
2023/09/14 10:10:50;;;;;;;;;;;;;;;33.92;30.73;98370.66;5093397;28;19919;-85
2023/09/14 10:13:20;;;;;;;;;;;;;;;33.95;30.21;98369.66;5093646;28;19916;-84
2023/09/14 10:15:47;;;;;;;;;;;;;;;33.98;30.32;98375.16;5093516;28;19923;-84
2023/09/14 10:18:13;;;;;;;;;;;;;;;33.99;30.25;98375.94;5093009;28;19924;-84
2023/09/14 10:20:41;;;;;;;;;;;;;;;33.99;31.06;98376.72;5093242;28;19924;-84
2023/09/14 10:23:07;;;;;;;;;;;;;;;33.80;30.56;98388.84;5093207;28;19916;-84
2023/09/14 10:25:34;;;;;;;;;;;;;;;34.31;30.15;98385.53;5093204;28;20019;-84
2023/09/14 10:28:00;;;;;;;;;;;;;;;34.14;31.71;98381.63;5092941;28;19916;-83
2023/09/14 10:30:26;;;;;;;;;;;;;;;33.89;30.97;98378.13;5096799;28;19920;-85
2023/09/14 10:32:55;;;;;;;;;;;;;;;33.44;33.59;98384.34;5090075;28;19959;-83
2023/09/14 10:35:22;;;;;;;;;;;;;;;33.08;32.24;98382.66;5085492;28;20002;-84
2023/09/14 10:37:49;;;;;;;;;;;;;;;32.51;36.51;98381.22;5096793;28;20296;-83
2023/09/14 10:40:17;;;;;;;;;;;;;;;32.09;34.34;98398.34;5096948;28;19912;-84
2023/09/14 10:42:43;;;;;;;;;;;;;;;32.58;32.88;98386.53;5095415;28;19923;-84
2023/09/14 10:45:10;;;;;;;;;;;;;;;31.79;33.89;98391.66;5090001;28;19912;-83
2023/09/14 10:47:38;;;;;;;;;;;;;;;32.14;33.52;98385.53;5076133;28;19917;-83
2023/09/14 10:50:05;;;;;;;;;;;;;;;31.68;34.24;98391.41;5076539;28;20092;-84
2023/09/14 10:52:32;;;;;;;;;;;;;;;31.72;33.59;98386.31;5090992;28;20007;-83
2023/09/14 10:54:58;;;;;;;;;;;;;;;32.48;35.73;98382.16;5096291;28;19920;-84
2023/09/14 10:57:25;;;;;;;;;;;;;;;33.07;32.02;98378.22;5096354;28;19969;-84
2023/09/14 10:59:52;;;;;;;;;;;;;;;32.84;31.82;98379.03;5096198;28;19966;-84
2023/09/14 11:02:37;;;;;;;;;;;;;;;33.32;31.32;98385.44;5096505;28;20285;-84
2023/09/14 11:05:13;;;;;;;;;;;;;;;33.70;31.29;98385.31;5096265;28;19916;-84
2023/09/14 11:07:39;;;;;;;;;;;;;;;34.30;30.79;98386.78;5096381;28;19924;-84
2023/09/14 11:10:07;;;;;;;;;;;;;;;34.22;29.72;98388.47;5096437;28;19923;-83
2023/09/14 11:12:33;;;;;;;;;;;;;;;32.30;33.14;98400.09;5095911;28;19971;-84
2023/09/14 11:15:14;;;;;;;;;;;;;;;31.70;34.41;98393.75;5095923;28;19916;-84
2023/09/14 11:17:41;;;;;;;;;;;;;;;31.50;33.79;98391.47;5096332;28;19916;-84
2023/09/14 11:20:27;;;;;;;;;;;;;;;32.35;32.88;98398.69;5096099;28;20400;-83
2023/09/14 11:22:58;;;;;;;;;;;;;;;31.41;34.58;98405.66;5092001;28;19923;-84
2023/09/14 11:25:28;;;;;;;;;;;;;;;32.89;32.20;98389.75;5096090;28;19923;-84
2023/09/14 11:27:55;;;;;;;;;;;;;;;33.11;31.40;98397.97;5094233;28;20304;-84
2023/09/14 11:30:22;;;;;;;;;;;;;;;33.80;30.06;98392.47;5095389;28;19916;-84
2023/09/14 11:32:48;;;;;;;;;;;;;;;34.56;29.89;98402.75;5095921;28;19916;-83
2023/09/14 11:35:14;;;;;;;;;;;;;;;34.62;29.29;98397.88;5095631;28;19956;-84
2023/09/14 11:37:40;;;;;;;;;;;;;;;33.92;30.11;98399.94;5095739;28;19924;-83
2023/09/14 11:40:15;;;;;;;;;;;;;;;34.54;29.60;98408.16;5095406;28;19912;-84
2023/09/14 11:42:59;;;;;;;;;;;;;;;34.54;29.72;98410.22;5095537;28;20373;-84
2023/09/14 11:45:25;;;;;;;;;;;;;;;34.21;29.76;98404.03;5095421;28;19919;-84
2023/09/14 11:47:51;;;;;;;;;;;;;;;35.10;29.14;98406.03;5095299;28;19916;-84
2023/09/14 11:50:20;;;;;;;;;;;;;;;35.35;28.18;98411.75;5094067;28;19912;-84
2023/09/14 11:52:46;;;;;;;;;;;;;;;35.55;27.34;98413.75;5095175;28;19920;-84
2023/09/14 11:55:18;;;;;;;;;;;;;;;35.32;28.28;98411.94;5095539;28;20350;-85
2023/09/14 11:57:44;;;;;;;;;;;;;;;33.56;29.88;98416.69;5095027;28;19923;-84
2023/09/14 12:00:11;;;;;;;;;;;;;;;33.20;30.86;98421.44;5095226;28;19931;-85
2023/09/14 12:02:38;;;;;;;;;;;;;;;33.72;30.39;98414.13;5095047;28;20028;-84
2023/09/14 12:05:04;;;;;;;;;;;;;;;34.44;29.05;98418.09;5073497;28;19950;-84
2023/09/14 12:07:30;;;;;;;;;;;;;;;34.82;29.11;98419.94;5074845;28;19925;-84
2023/09/14 12:09:56;;;;;;;;;;;;;;;34.47;29.09;98417.09;5074730;28;19961;-85
2023/09/14 12:12:29;;;;;;;;;;;;;;;33.66;30.26;98413.22;5073253;28;19916;-84
2023/09/14 12:14:58;;;;;;;;;;;;;;;34.32;30.14;98415.59;5074524;28;19928;-84
2023/09/14 12:17:25;;;;;;;;;;;;;;;34.66;29.53;98415.56;5074809;28;19967;-84
2023/09/14 12:19:53;;;;;;;;;;;;;;;34.62;29.73;98417.84;5075917;28;19955;-84
2023/09/14 12:22:20;;;;;;;;;;;;;;;34.56;29.58;98414.16;5094975;28;19920;-84
2023/09/14 12:24:46;;;;;;;;;;;;;;;34.71;29.54;98428.34;5091032;28;19968;-84
2023/09/14 12:27:13;;;;;;;;;;;;;;;34.69;29.75;98417.44;5085870;28;19916;-84
2023/09/14 12:29:41;;;;;;;;;;;;;;;34.58;29.94;98417.28;5094741;28;19922;-84
2023/09/14 12:32:07;;;;;;;;;;;;;;;34.88;29.24;98411.44;5094672;28;20269;-84
2023/09/14 12:34:33;;;;;;;;;;;;;;;34.67;29.40;98414.28;5094646;28;20336;-84
2023/09/14 12:37:00;;;;;;;;;;;;;;;35.01;29.47;98417.56;5094177;28;19928;-84
2023/09/14 12:39:26;;;;;;;;;;;;;;;35.14;29.10;98415.13;5094742;28;19920;-84
2023/09/14 12:41:53;;;;;;;;;;;;;;;35.17;29.04;98412.03;5094242;28;19985;-83
2023/09/14 12:44:22;;;;;;;;;;;;;;;35.01;29.23;98424.03;5094379;28;19953;-84
2023/09/14 12:46:50;;;;;;;;;;;;;;;35.20;29.76;98413.13;5094490;28;19920;-84